Time;durP1;ratioP1;P1;durP2;ratioP2;P2;SDS_P1;SDS_P2;PMS_P1;PMS_P2;Temp;Humidity;BMP_temperature;BMP_pressure;BME280_temperature;BME280_humidity;BME280_pressure;Samples;Min_cycle;Max_cycle;Signal;HPM_P1;HPM_P2
2021/11/05 00:00:25;;;;;;;4.13;3.72;;;7.10;73.50;;;6.21;59.77;94677.06;4943631;28;20191;-82
2021/11/05 00:02:54;;;;;;;4.20;3.78;;;7.10;73.70;;;6.19;59.65;94674.66;4940570;28;20252;-82
2021/11/05 00:05:26;;;;;;;4.60;3.65;;;7.10;73.60;;;6.19;59.78;94679.03;4935511;29;20650;-83
2021/11/05 00:07:55;;;;;;;5.22;4.25;;;7.20;73.60;;;6.13;59.78;94672.72;4924806;29;20310;-82
2021/11/05 00:10:23;;;;;;;4.18;3.65;;;7.10;73.80;;;6.15;59.83;94675.16;4943571;28;20222;-84
2021/11/05 00:12:50;;;;;;;4.10;3.70;;;7.00;73.70;;;6.12;59.58;94678.91;4943609;28;20226;-82
2021/11/05 00:15:18;;;;;;;4.82;4.07;;;7.10;73.80;;;6.08;59.87;94688.84;4959734;28;20190;-83
2021/11/05 00:17:46;;;;;;;4.32;3.92;;;7.00;73.80;;;6.08;59.63;94701.88;4930600;29;20697;-83
2021/11/05 00:20:13;;;;;;;4.75;4.20;;;7.00;73.80;;;6.07;59.92;94694.22;4961173;28;20574;-82
2021/11/05 00:22:41;;;;;;;4.30;3.90;;;7.00;73.80;;;6.05;59.60;94697.00;4924226;29;20250;-83
2021/11/05 00:25:08;;;;;;;4.80;4.13;;;6.90;73.70;;;6.02;59.94;94701.75;4936991;28;20290;-83
2021/11/05 00:27:40;;;;;;;5.72;4.35;;;6.90;73.70;;;6.03;59.69;94711.97;4943001;28;20307;-82
2021/11/05 00:30:10;;;;;;;5.25;4.00;;;6.90;73.70;;;6.00;60.02;94696.69;4943589;28;20199;-83
2021/11/05 00:32:38;;;;;;;4.63;4.22;;;6.90;73.70;;;5.94;59.96;94681.72;4942927;28;20218;-83
2021/11/05 00:35:11;;;;;;;5.93;4.10;;;6.90;73.80;;;5.99;59.69;94704.66;4943805;28;20241;-82
2021/11/05 00:37:38;;;;;;;5.00;4.13;;;6.90;73.70;;;5.98;60.11;94706.44;4959199;28;20322;-84
2021/11/05 00:40:09;;;;;;;4.80;4.30;;;6.90;73.70;;;5.97;60.00;94704.81;4913238;29;20215;-84
2021/11/05 00:42:36;;;;;;;4.20;3.80;;;6.90;73.70;;;5.97;60.23;94696.19;4924095;29;20263;-82
2021/11/05 00:45:06;;;;;;;5.35;4.32;;;6.90;73.70;;;5.95;60.25;94692.94;4950596;28;20198;-83
2021/11/05 00:47:33;;;;;;;4.70;4.20;;;6.80;73.70;;;5.92;59.98;94688.91;4941677;28;20658;-83
2021/11/05 00:50:01;;;;;;;4.47;3.88;;;6.80;73.60;;;5.86;59.67;94690.38;4941561;28;20246;-82
2021/11/05 00:52:28;;;;;;;4.28;3.88;;;6.80;73.60;;;5.77;59.85;94686.16;4942239;28;20273;-84
2021/11/05 00:54:55;;;;;;;4.75;4.22;;;6.80;73.60;;;5.81;60.22;94697.03;4957882;28;20191;-84
2021/11/05 00:57:22;;;;;;;4.47;3.97;;;6.80;73.60;;;5.79;60.40;94699.81;4955992;28;20301;-82
2021/11/05 00:59:50;;;;;;;4.45;4.05;;;6.70;73.60;;;5.72;60.31;94694.47;4949983;28;20195;-82
2021/11/05 01:02:17;;;;;;;4.32;3.92;;;6.80;73.60;;;5.73;60.18;94706.50;4941519;28;20684;-83
2021/11/05 01:04:45;;;;;;;5.45;3.78;;;6.70;73.60;;;5.70;60.26;94713.81;4941142;28;21172;-82
2021/11/05 01:07:12;;;;;;;4.65;3.90;;;6.60;73.50;;;5.64;60.00;94717.91;4929746;29;20227;-83
2021/11/05 01:09:40;;;;;;;3.80;3.50;;;6.60;73.50;;;5.52;59.99;94714.84;4938316;29;20196;-83
2021/11/05 01:12:08;;;;;;;4.15;3.47;;;6.60;73.50;;;5.49;60.35;94722.16;4922775;29;20701;-84
2021/11/05 01:14:35;;;;;;;4.07;3.40;;;6.50;73.50;;;5.39;59.87;94722.34;4928847;28;20210;-82
2021/11/05 01:17:04;;;;;;;4.57;3.30;;;6.50;73.40;;;5.29;59.94;94728.50;4926939;29;20235;-83
2021/11/05 01:19:32;;;;;;;3.95;3.30;;;6.40;73.40;;;5.20;60.14;94728.69;4954347;28;20661;-82
2021/11/05 01:21:59;;;;;;;3.88;3.20;;;6.40;73.40;;;5.15;59.93;94737.00;4941701;28;20273;-83
2021/11/05 01:24:27;;;;;;;4.10;3.38;;;6.30;73.20;;;5.03;60.12;94735.66;4962767;28;20195;-84
2021/11/05 01:26:54;;;;;;;4.97;4.03;;;6.30;74.20;;;4.96;60.18;94723.31;4957241;28;20230;-83
2021/11/05 01:29:21;;;;;;;4.35;3.95;;;6.10;73.10;;;4.89;60.24;94719.72;4941424;28;20210;-83
2021/11/05 01:31:48;;;;;;;4.72;4.20;;;6.10;73.10;;;4.86;60.40;94722.69;4941557;28;20219;-83
2021/11/05 01:34:16;;;;;;;4.65;4.13;;;6.00;73.40;;;4.86;60.61;94725.28;4936371;28;20234;-81
2021/11/05 01:36:43;;;;;;;4.70;4.28;;;5.90;73.60;;;4.81;60.74;94719.75;4940336;28;20230;-83
2021/11/05 01:39:10;;;;;;;5.50;4.10;;;5.90;73.80;;;4.85;61.02;94723.63;4957075;28;20627;-82
2021/11/05 01:41:40;;;;;;;4.38;3.85;;;5.90;74.80;;;4.85;60.96;94722.84;4941352;28;20325;-83
2021/11/05 01:44:08;;;;;;;4.10;3.70;;;5.90;74.20;;;4.85;60.74;94725.44;4945198;28;20207;-83
2021/11/05 01:46:42;;;;;;;5.07;3.80;;;5.90;74.00;;;4.83;60.70;94732.56;4898675;28;1223010;-83
2021/11/05 01:49:12;;;;;;;4.20;3.80;;;5.80;74.00;;;4.83;60.97;94742.97;4955913;28;20257;-83
2021/11/05 01:51:39;;;;;;;4.60;4.00;;;5.80;74.10;;;4.80;60.84;94749.31;4939514;28;20235;-85
2021/11/05 01:54:10;;;;;;;4.25;3.85;;;5.70;74.00;;;4.77;60.62;94760.00;4941833;28;20671;-83
2021/11/05 01:56:40;;;;;;;4.20;3.80;;;5.80;74.20;;;4.71;60.80;94758.03;4942054;28;20219;-83
2021/11/05 01:59:32;;;;;;;5.03;3.92;;;5.70;74.00;;;4.65;60.65;94756.88;4973466;28;20694;-83
2021/11/05 02:02:04;;;;;;;4.70;3.80;;;5.70;74.50;;;4.59;60.67;94757.50;4940146;28;20223;-83
2021/11/05 02:04:31;;;;;;;4.75;3.70;;;5.70;74.10;;;4.57;60.53;94769.88;4962277;28;20659;-82
2021/11/05 02:06:59;;;;;;;4.07;3.45;;;5.70;74.10;;;4.52;60.69;94769.50;4954167;29;20227;-83
2021/11/05 02:09:29;;;;;;;4.68;3.40;;;5.60;74.00;;;4.48;60.59;94777.63;4970456;28;20206;-83
2021/11/05 02:12:00;;;;;;;4.20;3.80;;;5.60;74.10;;;4.42;60.96;94764.44;4950040;28;20233;-83
2021/11/05 02:14:28;;;;;;;4.32;3.80;;;5.50;74.30;;;4.41;61.14;94774.03;4957914;28;20641;-84
2021/11/05 02:16:59;;;;;;;5.63;4.50;;;5.50;74.30;;;4.41;61.67;94763.66;4960597;28;20289;-83
2021/11/05 02:19:31;;;;;;;5.57;4.65;;;5.50;74.60;;;4.46;61.74;94763.97;4951281;28;20293;-83
2021/11/05 02:22:00;;;;;;;5.20;4.53;;;5.50;74.80;;;4.51;61.80;94760.91;4936599;28;20227;-83
2021/11/05 02:24:29;;;;;;;4.45;4.00;;;5.40;74.90;;;4.52;61.65;94751.31;4925453;29;20206;-83
2021/11/05 02:26:58;;;;;;;5.75;4.75;;;5.50;75.00;;;4.61;61.82;94760.78;4922112;28;20231;-83
2021/11/05 02:29:31;;;;;;;5.22;4.72;;;5.50;75.00;;;4.62;62.59;94759.81;4939630;28;20199;-82
2021/11/05 02:31:59;;;;;;;5.78;5.18;;;5.60;75.30;;;4.69;62.28;94757.38;4922172;29;20223;-83
2021/11/05 02:34:28;;;;;;;5.57;4.97;;;5.60;75.30;;;4.76;62.66;94754.00;4922186;29;20646;-83
2021/11/05 02:36:56;;;;;;;6.00;4.93;;;5.60;76.20;;;4.80;62.68;94751.91;4930986;28;20233;-83
2021/11/05 02:39:23;;;;;;;4.93;4.43;;;5.60;75.40;;;4.83;61.84;94742.97;4930290;28;20195;-83
2021/11/05 02:41:52;;;;;;;6.28;4.97;;;5.70;75.50;;;4.90;62.13;94756.94;4923081;29;20606;-82
2021/11/05 02:44:20;;;;;;;5.10;4.35;;;5.70;75.50;;;4.93;61.82;94762.63;4940794;28;20226;-84
2021/11/05 02:46:48;;;;;;;4.32;3.92;;;5.70;75.40;;;4.92;61.80;94758.41;4937235;29;20634;-84
2021/11/05 02:49:16;;;;;;;4.40;3.95;;;5.80;75.30;;;4.97;61.96;94758.72;4953320;29;20191;-82
2021/11/05 02:51:48;;;;;;;5.68;4.80;;;5.80;75.30;;;4.99;62.10;94765.56;4937667;29;20227;-81
2021/11/05 02:54:16;;;;;;;4.70;4.22;;;5.80;75.40;;;5.00;62.26;94773.19;4940602;28;20206;-83
2021/11/05 02:56:43;;;;;;;4.35;3.95;;;5.80;75.30;;;4.99;62.02;94761.16;4921541;29;20251;-83
2021/11/05 02:59:12;;;;;;;5.85;5.10;;;5.90;75.20;;;4.95;61.82;94763.28;4956838;28;20727;-82
2021/11/05 03:01:39;;;;;;;4.57;4.10;;;5.90;75.20;;;4.96;61.69;94758.91;4932711;29;20761;-84
2021/11/05 03:04:09;;;;;;;6.28;4.28;;;5.90;75.30;;;5.00;61.78;94760.19;4921738;29;20234;-84
2021/11/05 03:06:39;;;;;;;4.78;4.28;;;5.90;75.30;;;5.02;62.05;94778.25;4930780;28;20269;-83
2021/11/05 03:09:10;;;;;;;5.00;4.47;;;5.90;75.20;;;5.02;61.73;94783.44;4941302;28;20183;-84
2021/11/05 03:11:38;;;;;;;4.38;3.75;;;5.90;75.20;;;5.01;62.21;94787.81;4957022;28;20265;-82
2021/11/05 03:14:07;;;;;;;4.60;4.07;;;5.90;75.10;;;4.99;61.48;94788.97;4972071;28;20277;-84
2021/11/05 03:16:35;;;;;;;5.20;4.53;;;5.90;75.00;;;4.95;61.81;94791.06;4921902;29;20306;-84
2021/11/05 03:19:04;;;;;;;5.43;4.60;;;5.90;75.10;;;4.93;61.84;94796.44;4921504;29;20290;-83
2021/11/05 03:21:31;;;;;;;5.75;4.00;;;5.90;75.10;;;4.93;61.89;94796.44;4921447;29;20697;-82
2021/11/05 03:23:59;;;;;;;5.53;4.78;;;5.90;75.00;;;4.93;61.61;94800.78;4921389;29;20227;-83
2021/11/05 03:26:27;;;;;;;6.20;4.90;;;5.90;75.00;;;4.86;61.88;94800.63;4931627;28;20299;-82
2021/11/05 03:28:54;;;;;;;7.20;4.78;;;5.90;75.00;;;4.90;62.05;94801.13;4921529;29;20278;-83
2021/11/05 03:31:21;;;;;;;5.60;4.95;;;5.90;75.10;;;4.86;62.16;94808.44;4921438;29;20223;-82
2021/11/05 03:33:49;;;;;;;5.85;5.05;;;5.80;75.10;;;4.88;61.93;94808.25;4926686;28;20202;-83
2021/11/05 03:36:16;;;;;;;5.32;4.82;;;5.80;75.20;;;4.85;61.66;94808.59;4956042;28;20219;-82
2021/11/05 03:38:43;;;;;;;5.90;5.07;;;5.80;75.10;;;4.78;61.81;94826.59;4972677;28;20202;-83
2021/11/05 03:41:11;;;;;;;7.38;5.50;;;5.80;75.10;;;4.74;62.01;94820.09;4940247;28;20301;-82
2021/11/05 03:43:40;;;;;;;6.38;5.28;;;5.90;75.30;;;4.79;62.64;94836.00;4946840;28;20599;-84
2021/11/05 03:46:07;;;;;;;5.72;4.97;;;5.70;75.30;;;4.77;62.53;94838.78;4948456;28;20214;-83
2021/11/05 03:48:38;;;;;;;7.60;5.43;;;5.80;75.30;;;4.78;62.14;94842.19;4951094;28;20779;-83
2021/11/05 03:51:08;;;;;;;5.70;5.10;;;5.80;75.40;;;4.77;62.15;94846.56;4945608;28;20652;-83
2021/11/05 03:53:36;;;;;;;5.72;5.13;;;5.70;75.40;;;4.77;62.29;94856.97;4944834;28;20191;-82
2021/11/05 03:56:04;;;;;;;5.75;5.15;;;5.70;75.40;;;4.77;62.66;94854.38;4962515;28;20627;-81
2021/11/05 03:58:31;;;;;;;6.88;4.65;;;5.70;75.40;;;4.73;62.35;94842.66;4941277;28;20198;-82
2021/11/05 04:00:58;;;;;;;5.43;4.82;;;5.70;75.50;;;4.80;62.49;94848.84;4949383;28;20222;-84
2021/11/05 04:03:26;;;;;;;5.45;4.93;;;5.80;75.60;;;4.78;62.90;94855.97;4949562;28;20218;-83
2021/11/05 04:05:53;;;;;;;6.10;4.80;;;5.70;75.40;;;4.83;62.27;94855.50;4951358;28;20723;-82
2021/11/05 04:08:20;;;;;;;5.13;4.63;;;5.80;75.60;;;4.84;62.39;94862.34;4948777;28;20280;-82
2021/11/05 04:10:47;;;;;;;5.22;4.47;;;5.70;75.40;;;4.79;62.57;94855.00;4947207;28;20202;-80
2021/11/05 04:13:15;;;;;;;5.60;4.90;;;5.70;75.40;;;4.84;62.53;94862.34;4933595;28;20252;-78
2021/11/05 04:15:42;;;;;;;6.07;4.72;;;5.70;75.40;;;4.76;62.46;94863.13;4954340;28;20202;-82
2021/11/05 04:18:09;;;;;;;5.20;4.63;;;5.70;75.50;;;4.78;62.84;94857.78;4940328;28;20732;-82
2021/11/05 04:20:37;;;;;;;5.88;4.75;;;5.80;75.60;;;4.78;62.18;94852.56;4933285;28;20553;-82
2021/11/05 04:23:08;;;;;;;5.22;4.72;;;5.70;75.50;;;4.85;62.52;94876.16;4940206;28;20582;-82
2021/11/05 04:25:36;;;;;;;7.13;5.03;;;5.70;75.50;;;4.81;62.22;94873.84;4948079;28;20208;-82
2021/11/05 04:28:07;;;;;;;4.78;4.25;;;5.80;75.50;;;4.81;62.16;94879.06;4932051;28;20203;-82
2021/11/05 04:30:35;;;;;;;4.72;4.22;;;5.70;75.40;;;4.78;62.00;94887.16;4948882;28;20203;-82
2021/11/05 04:33:04;;;;;;;5.13;4.63;;;5.70;75.30;;;4.73;61.95;94886.00;4935746;28;20212;-81
2021/11/05 04:35:32;;;;;;;5.13;4.40;;;5.70;75.20;;;4.65;61.89;94881.56;4931911;28;20192;-82
2021/11/05 04:38:00;;;;;;;5.72;4.90;;;5.70;75.20;;;4.61;62.26;94883.69;4937327;28;20289;-83
2021/11/05 04:40:27;;;;;;;5.80;5.20;;;5.70;76.10;;;4.56;61.86;94877.34;4941614;28;20213;-82
2021/11/05 04:42:54;;;;;;;5.55;5.00;;;5.70;75.30;;;4.59;62.18;94897.78;4937801;29;20235;-84
2021/11/05 04:45:22;;;;;;;6.35;5.00;;;5.60;75.30;;;4.53;62.19;94893.22;4954696;28;20282;-83
2021/11/05 04:47:50;;;;;;;5.45;4.95;;;5.60;75.40;;;4.53;62.48;94906.19;4974588;28;20752;-84
2021/11/05 04:50:18;;;;;;;5.57;4.80;;;5.50;75.40;;;4.51;62.48;94897.78;4941338;28;20207;-84
2021/11/05 04:52:48;;;;;;;6.25;5.15;;;5.50;75.40;;;4.55;62.55;94906.88;4935723;28;20226;-84
2021/11/05 04:55:19;;;;;;;5.68;5.13;;;5.50;75.40;;;4.50;62.13;94896.94;4941487;28;20226;-84
2021/11/05 04:57:49;;;;;;;8.38;7.32;;;5.50;75.50;;;4.52;62.08;94910.59;4942618;28;20224;-84
2021/11/05 05:00:21;;;;;;;19.83;10.80;;;5.50;75.40;;;4.50;62.23;94907.31;4930431;28;20277;-84
2021/11/05 05:02:48;;;;;;;10.98;7.25;;;5.50;75.40;;;4.44;61.99;94913.13;4942969;28;20223;-83
2021/11/05 05:05:17;;;;;;;6.35;5.18;;;5.50;75.40;;;4.37;62.16;94906.94;4943140;28;20198;-84
2021/11/05 05:07:45;;;;;;;7.00;5.57;;;5.40;75.30;;;4.36;62.20;94911.31;4954130;28;20223;-85
2021/11/05 05:10:13;;;;;;;6.05;4.82;;;5.40;75.20;;;4.31;62.21;94913.56;4941110;28;20294;-82
2021/11/05 05:12:41;;;;;;;6.03;4.95;;;5.40;75.30;;;4.24;62.41;94921.13;4940693;29;20322;-85
2021/11/05 05:15:12;;;;;;;5.97;4.88;;;5.30;75.30;;;4.22;62.39;94919.66;4942007;28;20195;-83
2021/11/05 05:17:39;;;;;;;5.80;4.32;;;5.30;75.40;;;4.21;62.36;94926.66;4942917;28;20708;-85
2021/11/05 05:20:13;;;;;;;6.07;4.60;;;5.30;75.30;;;4.15;62.15;94922.88;4942538;28;20230;-84
2021/11/05 05:22:41;;;;;;;5.38;4.88;;;5.30;75.40;;;4.05;62.56;94913.53;4941483;28;20230;-85
2021/11/05 05:25:10;;;;;;;8.30;5.07;;;5.20;75.30;;;4.09;62.71;94928.66;4927009;28;20207;-84
2021/11/05 05:27:39;;;;;;;6.22;5.65;;;5.20;75.50;;;4.10;62.86;94927.69;4941598;28;20317;-83
2021/11/05 05:30:12;;;;;;;7.13;5.47;;;5.20;75.50;;;4.08;62.84;94940.00;4942855;28;20690;-84
2021/11/05 05:32:44;;;;;;;6.13;5.30;;;5.10;75.50;;;4.08;62.70;94944.41;4924939;29;20225;-84
2021/11/05 05:35:13;;;;;;;6.20;5.35;;;5.10;75.70;;;4.03;62.92;94939.66;4942778;28;20775;-83
2021/11/05 05:37:41;;;;;;;7.68;5.75;;;5.10;75.60;;;4.01;63.05;94938.97;4941506;28;20257;-83
2021/11/05 05:40:10;;;;;;;6.40;5.40;;;5.10;75.80;;;4.08;63.15;94957.38;4942656;28;20769;-84
2021/11/05 05:42:37;;;;;;;5.43;4.93;;;5.10;75.90;;;4.08;63.16;94958.19;4955885;28;20225;-83
2021/11/05 05:45:06;;;;;;;7.85;6.07;;;5.10;75.90;;;4.11;63.51;94957.88;4936432;29;20708;-82
2021/11/05 05:47:33;;;;;;;7.57;6.18;;;5.10;76.20;;;4.18;64.33;94946.91;4930012;28;20238;-83
2021/11/05 05:50:01;;;;;;;6.43;5.80;;;5.10;76.50;;;4.24;63.83;94967.06;4942232;28;20660;-84
2021/11/05 05:52:28;;;;;;;8.55;7.03;;;5.10;76.50;;;4.26;64.84;94952.97;4941893;28;20265;-84
2021/11/05 05:54:56;;;;;;;6.85;6.10;;;5.20;76.80;;;4.35;64.26;94959.03;4938510;29;20302;-83
2021/11/05 05:57:23;;;;;;;7.65;5.95;;;5.20;76.70;;;4.41;64.08;94960.19;4934122;28;20689;-84
2021/11/05 05:59:50;;;;;;;6.82;6.13;;;5.20;76.60;;;4.41;63.61;94955.00;4933603;28;20286;-83
2021/11/05 06:02:17;;;;;;;7.82;6.50;;;5.30;76.60;;;4.47;63.53;94957.78;4930747;28;20226;-83
2021/11/05 06:04:44;;;;;;;7.35;6.20;;;5.30;76.60;;;4.52;63.89;94972.09;4933390;28;20226;-83
2021/11/05 06:07:12;;;;;;;7.90;6.30;;;5.30;76.60;;;4.54;63.71;94971.00;4934376;28;20229;-83
2021/11/05 06:09:39;;;;;;;6.57;5.88;;;5.40;76.50;;;4.55;63.33;94980.41;4932674;28;20203;-84
2021/11/05 06:12:07;;;;;;;9.23;7.28;;;5.50;76.40;;;4.56;63.64;94976.84;4930792;28;20219;-84
2021/11/05 06:14:34;;;;;;;8.20;6.70;;;5.50;76.50;;;4.52;63.54;94972.09;4932579;28;20290;-83
2021/11/05 06:17:02;;;;;;;6.90;6.18;;;5.40;76.40;;;4.61;63.44;94990.22;4938474;28;20223;-84
2021/11/05 06:19:30;;;;;;;9.20;7.85;;;5.50;76.50;;;4.62;63.94;94998.81;4931255;28;20202;-84
2021/11/05 06:21:57;;;;;;;6.88;6.10;;;5.50;76.60;;;4.62;63.54;94984.03;4932072;28;20214;-84
2021/11/05 06:24:24;;;;;;;8.57;6.45;;;5.50;76.50;;;4.69;63.10;94994.63;4930111;28;20211;-84
2021/11/05 06:26:52;;;;;;;7.57;6.10;;;5.50;76.60;;;4.74;63.68;95009.75;4929203;28;20302;-84
2021/11/05 06:29:19;;;;;;;7.63;6.55;;;5.60;77.40;;;4.74;63.69;95000.19;4939451;28;20298;-84
2021/11/05 06:31:47;;;;;;;7.20;6.07;;;5.60;76.70;;;4.83;63.50;95014.03;4940141;28;20306;-80
2021/11/05 06:34:14;;;;;;;7.25;6.10;;;5.60;76.60;;;4.84;63.42;95017.44;4938815;28;20571;-80
2021/11/05 06:36:41;;;;;;;8.40;6.97;;;5.70;76.70;;;4.92;63.89;95035.66;4923721;28;20241;-80
2021/11/05 06:39:10;;;;;;;7.20;6.22;;;5.70;76.80;;;4.99;63.26;95034.09;4956272;28;20254;-81
2021/11/05 06:41:37;;;;;;;7.78;6.55;;;5.70;76.70;;;5.02;63.38;95031.19;4938721;28;20214;-81
2021/11/05 06:44:04;;;;;;;9.00;7.22;;;5.80;76.80;;;5.08;63.69;95037.56;4955872;28;20211;-81
2021/11/05 06:46:32;;;;;;;8.07;6.88;;;5.80;76.80;;;5.13;63.32;95043.91;4939440;28;20214;-80
2021/11/05 06:48:59;;;;;;;9.63;6.88;;;5.90;76.80;;;5.18;62.99;95045.25;4939737;28;20293;-81
2021/11/05 06:51:26;;;;;;;8.23;7.20;;;5.90;76.80;;;5.23;63.28;95056.00;4939031;28;20309;-82
2021/11/05 06:53:53;;;;;;;6.90;6.20;;;5.90;76.80;;;5.26;63.38;95061.72;4939749;28;20226;-82
2021/11/05 06:56:20;;;;;;;8.38;6.55;;;6.00;76.80;;;5.30;63.29;95067.41;4933147;29;20219;-81
2021/11/05 06:58:49;;;;;;;7.68;6.68;;;6.00;76.70;;;5.35;63.28;95064.34;4952903;29;20235;-81
2021/11/05 07:01:16;;;;;;;8.45;6.90;;;6.10;76.80;;;5.39;63.12;95063.06;4966499;28;20222;-81
2021/11/05 07:03:44;;;;;;;8.07;6.63;;;6.10;76.90;;;5.46;63.48;95077.09;4937194;29;20250;-82
2021/11/05 07:06:11;;;;;;;8.23;6.53;;;6.10;76.90;;;5.51;63.28;95082.63;4969049;28;20224;-82
2021/11/05 07:08:39;;;;;;;8.00;6.78;;;6.20;76.90;;;5.58;63.06;95082.84;4937309;29;20199;-80
2021/11/05 07:11:06;;;;;;;10.88;7.82;;;6.20;76.90;;;5.68;63.41;95080.91;4955104;28;20218;-80
2021/11/05 07:13:34;;;;;;;8.00;6.70;;;6.30;77.00;;;5.82;63.00;95096.91;4944539;28;20223;-82
2021/11/05 07:16:02;;;;;;;9.77;7.53;;;6.40;77.00;;;5.82;62.98;95095.09;4929969;28;20238;-82
2021/11/05 07:18:32;;;;;;;10.55;8.20;;;6.40;76.90;;;5.93;62.65;95099.19;4946052;28;20195;-82
2021/11/05 07:21:03;;;;;;;17.58;11.38;;;6.50;76.90;;;6.08;62.32;95109.88;4926157;29;20702;-82
2021/11/05 07:23:32;;;;;;;15.25;10.77;;;6.60;76.90;;;6.12;62.29;95102.56;4943611;28;20211;-81
2021/11/05 07:26:02;;;;;;;9.43;7.50;;;6.70;77.00;;;6.23;62.18;95118.69;4940140;28;20310;-82
2021/11/05 07:28:30;;;;;;;9.20;7.00;;;6.80;76.80;;;6.33;62.18;95107.31;4940231;28;20202;-81
2021/11/05 07:30:57;;;;;;;9.13;6.40;;;6.80;76.70;;;6.40;61.84;95116.13;4939811;28;20568;-82
2021/11/05 07:33:24;;;;;;;6.43;5.65;;;6.90;76.70;;;6.51;61.71;95118.41;4960181;28;20221;-80
2021/11/05 07:35:51;;;;;;;6.57;5.75;;;7.00;76.60;;;6.59;61.84;95116.78;4942159;28;20229;-81
2021/11/05 07:38:19;;;;;;;6.60;5.90;;;7.10;76.60;;;6.68;61.20;95119.22;4932897;28;20626;-81
2021/11/05 07:40:47;;;;;;;5.80;5.13;;;7.20;76.50;;;6.77;61.28;95120.03;4938166;28;20328;-81
2021/11/05 07:43:14;;;;;;;5.80;5.20;;;7.30;76.30;;;6.86;61.28;95119.06;4938008;28;20199;-81
2021/11/05 07:45:41;;;;;;;4.90;4.45;;;7.30;76.30;;;6.97;61.08;95124.91;4930892;28;20290;-81
2021/11/05 07:48:08;;;;;;;4.95;4.53;;;7.40;76.20;;;7.06;61.23;95113.50;4939619;28;20615;-81
2021/11/05 07:50:36;;;;;;;5.18;4.20;;;7.40;76.20;;;7.16;61.00;95121.16;4935357;28;20203;-80
2021/11/05 07:53:05;;;;;;;4.50;4.10;;;7.60;76.20;;;7.23;60.95;95124.75;4956341;28;20214;-80
2021/11/05 07:55:33;;;;;;;6.32;4.53;;;7.70;76.20;;;7.33;60.85;95127.16;4948718;28;20210;-81
2021/11/05 07:58:01;;;;;;;5.50;4.35;;;7.70;76.00;;;7.40;60.46;95128.13;4933848;28;20254;-82
2021/11/05 08:00:28;;;;;;;8.00;4.50;;;7.70;75.90;;;7.49;60.16;95124.50;4933362;28;20298;-81
2021/11/05 08:02:56;;;;;;;4.68;4.20;;;7.90;75.90;;;7.53;60.23;95123.22;4932442;28;20285;-81
2021/11/05 08:05:23;;;;;;;5.18;4.32;;;7.90;75.70;;;7.65;60.11;95126.28;4933986;28;20280;-81
2021/11/05 08:07:51;;;;;;;4.35;3.90;;;8.00;75.60;;;7.76;60.41;95129.50;4940984;28;20223;-81
2021/11/05 08:10:21;;;;;;;4.20;3.80;;;8.10;75.80;;;7.82;59.06;95136.66;4932288;28;20258;-81
2021/11/05 08:12:51;;;;;;;4.45;4.05;;;8.20;75.30;;;7.92;59.43;95139.06;4934553;28;20222;-82
2021/11/05 08:15:21;;;;;;;4.13;3.72;;;8.20;75.30;;;7.99;58.88;95137.41;4932318;28;20219;-81
2021/11/05 08:17:50;;;;;;;4.15;3.72;;;8.50;75.20;;;8.09;58.59;95138.03;4933686;28;20603;-82
2021/11/05 08:20:17;;;;;;;3.95;3.40;;;8.40;74.80;;;8.18;58.75;95139.59;4933928;28;20213;-81
2021/11/05 08:22:46;;;;;;;5.80;3.50;;;8.50;74.80;;;8.24;58.35;95135.50;4948340;28;20207;-81
2021/11/05 08:25:16;;;;;;;4.63;3.03;;;8.60;74.90;;;8.38;58.73;95161.88;4932891;28;20258;-82
2021/11/05 08:27:46;;;;;;;5.30;2.83;;;8.60;74.90;;;8.47;58.25;95155.66;4934567;28;20274;-82
2021/11/05 08:30:22;;;;;;;3.40;3.10;;;8.70;75.00;;;8.57;58.23;95171.09;4934672;28;20286;-81
2021/11/05 08:32:59;;;;;;;3.50;3.00;;;8.90;75.00;;;8.67;57.96;95166.47;4941010;28;20696;-81
2021/11/05 08:35:31;;;;;;;4.30;3.10;;;8.90;74.80;;;8.76;58.23;95162.00;4952024;28;20206;-81
2021/11/05 08:38:00;;;;;;;3.17;2.88;;;9.00;74.60;;;8.86;58.21;95167.84;4957721;28;20227;-81
2021/11/05 08:40:27;;;;;;;3.85;3.30;;;9.10;74.70;;;8.92;57.20;95166.31;4932136;28;20282;-81
2021/11/05 08:42:55;;;;;;;3.50;3.20;;;9.20;74.60;;;9.01;57.38;95169.66;4937013;28;20218;-81
2021/11/05 08:45:22;;;;;;;3.10;2.80;;;9.30;74.20;;;9.06;57.14;95162.94;4947689;28;20229;-81
2021/11/05 08:47:50;;;;;;;3.20;2.90;;;9.30;74.10;;;9.14;57.10;95162.03;4933275;28;20258;-80
2021/11/05 08:50:24;;;;;;;3.13;2.83;;;9.40;74.10;;;9.24;57.05;95173.09;4934174;28;20195;-81
2021/11/05 08:52:52;;;;;;;3.00;2.70;;;9.50;74.10;;;9.27;57.05;95169.31;4933995;28;20228;-81
2021/11/05 08:55:19;;;;;;;3.22;2.92;;;9.50;74.00;;;9.40;57.18;95176.56;4948267;28;20195;-81
2021/11/05 08:57:47;;;;;;;2.53;2.33;;;9.60;74.10;;;9.50;57.27;95177.09;4932827;28;20231;-82
2021/11/05 09:00:23;;;;;;;3.67;3.00;;;9.70;74.10;;;9.55;56.70;95171.34;4951523;28;20191;-81
2021/11/05 09:02:51;;;;;;;3.38;3.08;;;9.80;74.60;;;9.62;57.04;95180.13;4932082;28;20218;-81
2021/11/05 09:05:19;;;;;;;3.55;3.22;;;9.80;74.10;;;9.68;56.80;95183.81;4932247;28;20219;-81
2021/11/05 09:07:47;;;;;;;3.90;3.60;;;9.90;74.00;;;9.70;56.58;95202.78;4930955;28;21411;-80
2021/11/05 09:10:15;;;;;;;5.00;3.97;;;10.00;72.40;;;9.72;56.49;95212.09;4941113;28;20274;-81
2021/11/05 09:12:43;;;;;;;4.75;4.35;;;10.00;72.30;;;9.74;56.34;95190.94;4946297;28;20251;-81
2021/11/05 09:15:15;;;;;;;5.35;4.22;;;10.10;72.10;;;9.72;55.87;95196.38;4935104;28;20730;-81
2021/11/05 09:17:43;;;;;;;5.10;4.60;;;10.10;72.00;;;9.76;55.53;95212.53;4931924;28;20262;-81
2021/11/05 09:20:12;;;;;;;5.18;4.65;;;10.20;71.80;;;9.73;55.24;95210.28;4933280;28;20196;-81
2021/11/05 09:22:40;;;;;;;5.97;5.38;;;10.20;71.40;;;9.72;54.51;95216.53;4931431;28;20210;-81
2021/11/05 09:25:08;;;;;;;5.40;4.90;;;10.10;71.00;;;9.70;54.82;95216.69;4931467;28;20689;-81
2021/11/05 09:27:36;;;;;;;5.75;4.50;;;10.20;71.00;;;9.70;55.54;95213.25;4957433;28;20265;-81
2021/11/05 09:30:08;;;;;;;5.55;5.05;;;10.10;71.10;;;9.71;54.79;95230.59;4976817;28;20209;-82
2021/11/05 09:32:35;;;;;;;5.43;4.93;;;10.10;70.70;;;9.73;55.08;95226.00;4949454;28;20250;-81
2021/11/05 09:35:09;;;;;;;4.82;4.38;;;10.30;71.10;;;9.73;55.19;95207.69;4943322;28;20198;-82
2021/11/05 09:37:39;;;;;;;5.22;4.60;;;10.20;71.00;;;9.73;54.42;95210.28;4939742;28;20226;-81
2021/11/05 09:40:10;;;;;;;5.53;4.60;;;10.20;70.60;;;9.74;54.96;95219.75;4922726;29;20214;-81
2021/11/05 09:42:40;;;;;;;5.90;4.45;;;10.20;71.00;;;9.82;55.49;95208.41;4922053;29;20219;-82
2021/11/05 09:45:09;;;;;;;4.50;4.10;;;10.20;71.20;;;9.89;55.04;95214.56;4938491;29;20234;-81
2021/11/05 09:47:41;;;;;;;4.72;4.32;;;10.20;71.00;;;9.89;54.26;95223.22;4955330;29;20219;-81
2021/11/05 09:50:11;;;;;;;4.50;4.10;;;10.30;70.70;;;9.96;55.25;95215.47;4922848;29;20478;-82
2021/11/05 09:52:39;;;;;;;4.72;4.10;;;10.30;71.00;;;10.00;54.92;95223.78;4924922;28;20306;-81
2021/11/05 09:55:08;;;;;;;5.00;4.50;;;10.30;70.90;;;9.99;54.09;95211.66;4941639;28;20678;-81
2021/11/05 09:57:35;;;;;;;5.10;4.60;;;10.40;70.40;;;10.03;53.83;95220.78;4940645;28;20699;-80
2021/11/05 10:00:06;;;;;;;5.00;4.32;;;10.40;70.30;;;10.05;54.28;95213.56;4940902;28;20222;-80
2021/11/05 10:02:39;;;;;;;5.07;4.57;;;10.40;70.30;;;10.09;54.66;95212.19;4942823;28;20233;-81
2021/11/05 10:05:06;;;;;;;5.03;4.50;;;10.50;70.70;;;10.24;54.00;95236.59;4937061;28;20230;-79
2021/11/05 10:07:56;;;;;;;5.53;4.97;;;10.50;70.70;;;10.37;55.03;95225.47;4971027;28;20313;-79
2021/11/05 10:10:37;;;;;;;4.18;3.78;;;10.60;70.80;;;10.51;54.69;95226.47;4956936;28;20261;-81
2021/11/05 10:13:12;;;;;;;4.25;3.85;;;10.70;70.80;;;10.57;53.02;95240.69;4941629;28;20199;-82
2021/11/05 10:15:49;;;;;;;4.65;4.18;;;10.80;70.40;;;10.54;53.85;95231.34;4941161;28;20489;-81
2021/11/05 10:18:29;;;;;;;5.05;4.22;;;10.90;70.10;;;10.53;54.34;95242.84;4941364;28;20202;-82
2021/11/05 10:21:14;;;;;;;5.25;4.10;;;10.90;70.10;;;10.45;53.21;95234.25;4935776;28;20221;-81
2021/11/05 10:23:45;;;;;;;4.25;3.85;;;10.90;69.60;;;10.43;53.61;95249.38;4957014;28;20182;-82
2021/11/05 10:26:28;;;;;;;4.53;4.10;;;10.90;69.60;;;10.42;53.31;95238.06;4941501;28;20226;-79
2021/11/05 10:28:55;;;;;;;6.07;4.30;;;11.00;69.60;;;10.34;52.16;95231.06;4957047;28;20183;-82
2021/11/05 10:31:44;;;;;;;4.57;3.90;;;10.90;68.90;;;10.39;52.85;95239.22;4959638;28;20312;-82
2021/11/05 10:34:13;;;;;;;4.88;3.60;;;10.80;69.10;;;10.49;53.90;95238.16;4937931;28;20238;-82
2021/11/05 10:36:50;;;;;;;4.15;3.50;;;10.90;69.60;;;10.55;53.61;95227.72;4928963;28;20226;-82